createdAt,value
2018-12-26T00:02:14.156Z,14.35
2018-12-26T00:05:09.833Z,12.40
2018-12-26T00:08:06.472Z,14.23
2018-12-26T00:11:02.959Z,13.38
2018-12-26T00:13:59.092Z,14.20
2018-12-26T00:16:55.698Z,14.05
2018-12-26T00:19:52.535Z,15.98
2018-12-26T00:22:49.252Z,12.88
2018-12-26T00:25:45.660Z,11.60
2018-12-26T00:28:42.315Z,13.18
2018-12-26T00:31:39.114Z,14.78
2018-12-26T00:34:35.140Z,13.90
2018-12-26T00:37:31.839Z,14.60
2018-12-26T00:40:28.504Z,12.47
2018-12-26T00:43:25.435Z,13.93
2018-12-26T00:46:21.034Z,12.55
2018-12-26T00:49:18.256Z,14.47
2018-12-26T00:52:14.769Z,14.73
2018-12-26T00:55:10.693Z,13.43
2018-12-26T00:58:07.299Z,16.10
2018-12-26T01:01:05.306Z,17.32
2018-12-26T01:04:00.931Z,16.75
2018-12-26T01:06:56.876Z,14.70
2018-12-26T01:09:53.691Z,15.40
2018-12-26T01:12:49.411Z,15.75
2018-12-26T01:15:45.463Z,14.75
2018-12-26T01:18:42.360Z,12.90
2018-12-26T01:21:38.615Z,14.68
2018-12-26T01:24:34.360Z,17.95
2018-12-26T01:27:35.232Z,15.08
2018-12-26T01:30:31.907Z,13.88
2018-12-26T01:33:28.055Z,14.20
2018-12-26T01:36:24.757Z,16.67
2018-12-26T01:39:20.852Z,18.45
2018-12-26T01:42:17.546Z,14.55
2018-12-26T01:45:13.880Z,15.63
2018-12-26T01:48:10.878Z,14.93
2018-12-26T01:51:06.509Z,17.02
2018-12-26T01:54:07.313Z,16.82
2018-12-26T01:57:03.868Z,13.45
2018-12-26T01:59:59.936Z,15.83
2018-12-26T02:02:56.860Z,14.83
2018-12-26T02:05:53.496Z,15.10
2018-12-26T02:08:50.069Z,15.40
2018-12-26T02:11:46.910Z,15.75
2018-12-26T02:14:43.398Z,16.65
2018-12-26T02:17:43.076Z,15.20
2018-12-26T02:20:39.680Z,15.90
2018-12-26T02:23:36.442Z,19.85
2018-12-26T02:26:36.544Z,19.60
2018-12-26T02:29:33.315Z,14.65
2018-12-26T02:32:30.436Z,14.45
2018-12-26T02:35:27.330Z,15.93
2018-12-26T02:38:23.927Z,14.50
2018-12-26T02:41:20.558Z,15.00
2018-12-26T02:44:16.945Z,15.85
2018-12-26T02:47:12.858Z,19.20
2018-12-26T02:50:10.175Z,18.70
2018-12-26T02:53:07.164Z,16.95
2018-12-26T02:56:03.132Z,18.15
2018-12-26T02:58:58.639Z,15.60
2018-12-26T03:01:55.324Z,15.05
2018-12-26T03:04:51.783Z,15.68
2018-12-26T03:07:47.687Z,17.85
2018-12-26T03:10:43.200Z,18.00
2018-12-26T03:13:39.012Z,19.37
2018-12-26T03:16:35.020Z,16.10
2018-12-26T03:19:33.076Z,15.63
2018-12-26T03:22:42.870Z,16.62
2018-12-26T03:25:41.011Z,15.03
2018-12-26T03:28:37.690Z,17.17
2018-12-26T03:31:34.313Z,15.95
2018-12-26T03:34:30.748Z,16.48
2018-12-26T03:37:27.229Z,17.45
2018-12-26T03:40:24.374Z,17.20
2018-12-26T03:43:21.898Z,18.77
2018-12-26T03:46:18.523Z,16.07
2018-12-26T03:49:14.140Z,16.42
2018-12-26T03:52:10.933Z,15.25
2018-12-26T03:55:25.830Z,17.02
2018-12-26T03:58:22.471Z,16.50
2018-12-26T04:01:19.207Z,17.20
2018-12-26T04:04:16.133Z,16.23
2018-12-26T04:07:12.774Z,16.50
2018-12-26T04:10:09.299Z,16.12
2018-12-26T04:13:05.783Z,16.35
2018-12-26T04:16:02.698Z,18.20
2018-12-26T04:19:01.727Z,18.57
2018-12-26T04:21:58.571Z,16.10
2018-12-26T04:24:55.195Z,22.80
2018-12-26T04:27:50.960Z,19.95
2018-12-26T04:30:47.369Z,17.80
2018-12-26T04:33:43.542Z,16.48
2018-12-26T04:36:40.099Z,19.42
2018-12-26T04:39:36.295Z,18.17
2018-12-26T04:42:33.088Z,19.67
2018-12-26T04:45:29.918Z,19.17
2018-12-26T04:48:26.545Z,21.10
2018-12-26T04:51:22.108Z,17.95
2018-12-26T04:54:18.853Z,18.20
2018-12-26T04:57:24.522Z,18.80
2018-12-26T05:00:12.814Z,22.27
2018-12-26T05:03:09.070Z,16.97
2018-12-26T05:06:04.901Z,18.90
2018-12-26T05:09:00.898Z,20.55
2018-12-26T05:11:58.855Z,20.80
2018-12-26T05:14:55.739Z,21.07
2018-12-26T05:17:54.268Z,21.17
2018-12-26T05:20:52.531Z,18.55
2018-12-26T05:23:48.657Z,19.05
2018-12-26T05:26:45.283Z,21.97
2018-12-26T05:29:42.022Z,23.07
2018-12-26T05:32:38.411Z,19.70
2018-12-26T05:35:35.122Z,19.75
2018-12-26T05:38:31.664Z,21.95
2018-12-26T05:41:27.289Z,23.45
2018-12-26T05:44:23.902Z,21.33
2018-12-26T05:47:20.674Z,20.17
2018-12-26T05:50:17.597Z,22.93
2018-12-26T05:53:14.064Z,24.27
2018-12-26T05:56:11.481Z,20.02
2018-12-26T05:59:11.751Z,18.80
2018-12-26T06:02:07.827Z,18.10
2018-12-26T06:05:04.317Z,18.85
2018-12-26T06:08:01.073Z,20.52
2018-12-26T06:10:57.493Z,19.87
2018-12-26T06:13:53.930Z,18.52
2018-12-26T06:16:49.555Z,18.17
2018-12-26T06:19:46.391Z,18.60
2018-12-26T06:22:42.529Z,18.75
2018-12-26T06:25:38.835Z,17.07
2018-12-26T06:28:35.668Z,21.85
2018-12-26T06:31:31.984Z,17.50
2018-12-26T06:34:28.114Z,19.80
2018-12-26T06:37:23.786Z,20.35
2018-12-26T06:40:20.459Z,19.48
2018-12-26T06:43:16.527Z,21.80
2018-12-26T06:46:13.284Z,22.87
2018-12-26T06:49:09.709Z,19.60
2018-12-26T06:52:08.262Z,18.73
2018-12-26T06:55:05.054Z,90.67
2018-12-26T06:58:01.619Z,20.70
2018-12-26T07:00:58.106Z,17.67
2018-12-26T07:03:56.260Z,17.27
2018-12-26T07:06:54.093Z,18.73
2018-12-26T07:09:50.541Z,19.42
2018-12-26T07:12:46.947Z,18.17
2018-12-26T07:15:42.787Z,20.62
2018-12-26T07:18:38.566Z,18.32
2018-12-26T07:21:33.985Z,21.45
2018-12-26T07:24:31.832Z,19.07
2018-12-26T07:27:28.872Z,21.07
2018-12-26T07:30:25.321Z,19.92
2018-12-26T07:33:21.986Z,20.75
2018-12-26T07:36:18.711Z,20.12
2018-12-26T07:39:15.700Z,21.30
2018-12-26T07:42:12.237Z,19.87
2018-12-26T07:45:11.404Z,20.70
2018-12-26T07:48:07.316Z,19.25
2018-12-26T07:51:03.782Z,19.90
2018-12-26T07:54:03.172Z,18.60
2018-12-26T07:56:59.901Z,17.98
2018-12-26T07:59:56.793Z,18.77
2018-12-26T08:02:53.333Z,17.05
2018-12-26T08:05:48.998Z,17.48
2018-12-26T08:08:44.503Z,17.30
2018-12-26T08:11:41.241Z,17.87
2018-12-26T08:14:39.249Z,15.30
2018-12-26T08:17:39.357Z,22.22
2018-12-26T08:20:35.064Z,15.98
2018-12-26T08:23:30.996Z,14.33
2018-12-26T08:26:27.734Z,18.45
2018-12-26T08:29:24.422Z,17.42
2018-12-26T08:32:20.547Z,17.35
2018-12-26T08:35:16.146Z,17.12
2018-12-26T08:37:56.092Z,15.90
2018-12-26T08:40:35.825Z,17.20
2018-12-26T08:43:15.825Z,15.23
2018-12-26T08:45:55.615Z,17.00
2018-12-26T08:48:35.463Z,14.40
2018-12-26T08:51:15.358Z,20.48
2018-12-26T08:53:55.468Z,16.62
2018-12-26T08:56:35.658Z,16.30
2018-12-26T08:59:15.390Z,15.23
2018-12-26T09:01:55.314Z,14.28
2018-12-26T09:04:35.174Z,14.05
2018-12-26T09:07:14.847Z,15.48
2018-12-26T09:09:54.776Z,13.35
2018-12-26T09:12:35.956Z,15.43
2018-12-26T09:15:15.895Z,17.45
2018-12-26T09:17:56.012Z,15.95
2018-12-26T09:20:35.941Z,19.60
2018-12-26T09:23:15.629Z,17.73
2018-12-26T09:26:03.097Z,21.15
2018-12-26T09:28:45.156Z,25.20
2018-12-26T09:31:25.024Z,16.87
2018-12-26T09:34:04.835Z,16.12
2018-12-26T09:36:44.803Z,17.05
2018-12-26T09:39:24.553Z,24.20
2018-12-26T09:42:04.518Z,15.88
2018-12-26T09:44:54.311Z,19.35
2018-12-26T09:47:28.898Z,23.55
2018-12-26T09:50:08.931Z,17.25
2018-12-26T09:52:48.904Z,18.37
2018-12-26T09:55:29.956Z,20.25
2018-12-26T09:58:09.724Z,18.67
2018-12-26T10:00:49.639Z,17.10
2018-12-26T10:03:34.855Z,21.73
2018-12-26T10:06:14.572Z,18.27
2018-12-26T10:08:54.279Z,17.30
2018-12-26T10:11:33.979Z,22.22
2018-12-26T10:14:13.749Z,17.17
2018-12-26T10:16:53.460Z,18.60
2018-12-26T10:19:33.713Z,21.02
2018-12-26T10:22:16.572Z,20.48
2018-12-26T10:24:56.398Z,19.73
2018-12-26T10:27:36.104Z,19.50
2018-12-26T10:30:15.800Z,18.50
2018-12-26T10:32:55.631Z,18.50
2018-12-26T10:35:35.279Z,20.65
2018-12-26T10:38:15.287Z,16.67
2018-12-26T10:40:55.093Z,17.80
2018-12-26T10:43:35.070Z,23.45
2018-12-26T10:46:16.202Z,19.35
2018-12-26T10:48:55.928Z,19.75
2018-12-26T10:51:35.723Z,20.62
2018-12-26T10:54:15.493Z,16.27
2018-12-26T10:56:55.492Z,17.52
2018-12-26T10:59:35.627Z,21.20
2018-12-26T11:02:15.568Z,15.60
2018-12-26T11:04:55.450Z,18.35
2018-12-26T11:07:35.931Z,15.60
2018-12-26T11:10:15.998Z,14.70
2018-12-26T11:12:56.155Z,23.87
2018-12-26T11:15:37.860Z,18.48
2018-12-26T11:18:17.744Z,16.27
2018-12-26T11:20:58.122Z,16.70
2018-12-26T11:23:39.004Z,16.55
2018-12-26T11:26:18.803Z,15.72
2018-12-26T11:29:03.629Z,15.58
2018-12-26T11:31:50.627Z,14.50
2018-12-26T11:34:30.359Z,18.15
2018-12-26T11:37:10.431Z,19.45
2018-12-26T11:39:51.605Z,14.50
2018-12-26T11:42:32.064Z,18.35
2018-12-26T11:45:31.372Z,15.72
2018-12-26T11:48:11.808Z,14.63
2018-12-26T11:50:51.533Z,18.77
2018-12-26T11:53:31.545Z,15.05
2018-12-26T11:56:11.358Z,13.25
2018-12-26T11:58:51.612Z,15.30
2018-12-26T12:01:31.479Z,13.85
2018-12-26T12:04:12.207Z,14.80
2018-12-26T12:06:52.991Z,14.50
2018-12-26T12:09:35.400Z,13.55
2018-12-26T12:12:15.383Z,13.22
2018-12-26T12:14:55.183Z,13.58
2018-12-26T12:17:34.998Z,14.05
2018-12-26T12:20:15.494Z,15.48
2018-12-26T12:22:55.237Z,12.05
2018-12-26T12:25:36.517Z,12.65
2018-12-26T12:28:16.204Z,14.75
2018-12-26T12:30:56.063Z,14.23
2018-12-26T12:33:35.918Z,12.73
2018-12-26T12:36:16.162Z,13.68
2018-12-26T12:38:56.162Z,16.90
2018-12-26T12:41:38.273Z,12.98
2018-12-26T12:44:18.057Z,11.22
2018-12-26T12:46:58.368Z,16.87
2018-12-26T12:49:38.660Z,15.60
2018-12-26T12:52:18.394Z,15.98
2018-12-26T12:54:58.159Z,12.78
2018-12-26T12:57:40.735Z,14.85
2018-12-26T13:00:20.459Z,13.03
2018-12-26T13:03:01.684Z,14.23
2018-12-26T13:05:41.398Z,15.08
2018-12-26T13:08:23.648Z,12.50
2018-12-26T13:11:03.349Z,13.00
2018-12-26T13:13:43.472Z,14.68
2018-12-26T13:16:23.507Z,13.90
2018-12-26T13:19:03.228Z,13.18
2018-12-26T13:21:43.407Z,15.68
2018-12-26T13:24:25.321Z,14.25
2018-12-26T13:27:05.251Z,13.88
2018-12-26T13:29:53.581Z,12.78
2018-12-26T13:32:30.660Z,13.78
2018-12-26T13:35:11.564Z,14.47
2018-12-26T13:37:52.867Z,13.68
2018-12-26T13:40:32.709Z,15.20
2018-12-26T13:43:12.802Z,18.10
2018-12-26T13:45:54.223Z,15.80
2018-12-26T13:48:33.897Z,15.28
2018-12-26T13:51:13.697Z,17.90
2018-12-26T13:53:53.545Z,69.45
2018-12-26T13:56:33.735Z,23.70
2018-12-26T13:59:13.525Z,18.42
2018-12-26T14:01:53.723Z,15.32
2018-12-26T14:04:33.833Z,17.52
2018-12-26T14:07:13.568Z,13.95
2018-12-26T14:09:53.415Z,13.45
2018-12-26T14:12:33.422Z,15.90
2018-12-26T14:15:15.401Z,16.35
2018-12-26T14:17:55.292Z,17.25
2018-12-26T14:20:35.307Z,17.80
2018-12-26T14:23:15.529Z,15.40
2018-12-26T14:25:57.031Z,16.32
2018-12-26T14:28:37.912Z,15.23
2018-12-26T14:31:17.666Z,15.80
2018-12-26T14:33:57.520Z,16.20
2018-12-26T14:36:37.247Z,17.00
2018-12-26T14:39:17.571Z,16.35
2018-12-26T14:41:57.809Z,16.95
2018-12-26T14:44:38.206Z,15.95
2018-12-26T14:47:24.484Z,15.93
2018-12-26T14:50:04.842Z,19.12
2018-12-26T14:52:44.761Z,16.97
2018-12-26T14:55:24.785Z,22.07
2018-12-26T14:58:04.519Z,18.67
2018-12-26T15:00:44.491Z,18.20
2018-12-26T15:03:24.131Z,18.65
2018-12-26T15:06:04.333Z,18.50
2018-12-26T15:08:45.582Z,15.95
2018-12-26T15:11:25.614Z,15.23
2018-12-26T15:14:05.362Z,15.85
2018-12-26T15:16:45.427Z,13.80
2018-12-26T15:19:25.200Z,15.70
2018-12-26T15:22:06.570Z,13.98
2018-12-26T15:24:46.372Z,14.58
2018-12-26T15:27:26.221Z,15.55
2018-12-26T15:30:06.669Z,16.00
2018-12-26T15:32:58.483Z,15.72
2018-12-26T15:35:38.334Z,17.23
2018-12-26T15:38:18.282Z,16.25
2018-12-26T15:40:58.099Z,18.40
2018-12-26T15:43:39.002Z,16.75
2018-12-26T15:46:18.780Z,17.23
2018-12-26T15:48:58.615Z,17.42
2018-12-26T15:51:38.425Z,19.27
2018-12-26T15:54:18.135Z,18.75
2018-12-26T15:56:58.189Z,18.25
2018-12-26T15:59:37.905Z,19.55
2018-12-26T16:02:17.873Z,20.05
2018-12-26T16:04:57.627Z,19.17
2018-12-26T16:07:56.808Z,18.35
2018-12-26T16:10:38.623Z,20.32
2018-12-26T16:13:18.578Z,21.02
2018-12-26T16:15:58.342Z,21.57
2018-12-26T16:18:38.343Z,19.80
2018-12-26T16:21:21.447Z,19.77
2018-12-26T16:24:01.315Z,19.95
2018-12-26T16:26:41.166Z,18.57
2018-12-26T16:29:21.111Z,18.27
2018-12-26T16:32:01.345Z,19.37
2018-12-26T16:34:41.169Z,21.45
2018-12-26T16:37:21.151Z,20.48
2018-12-26T16:40:01.346Z,19.60
2018-12-26T16:42:41.147Z,24.25
2018-12-26T16:45:21.693Z,23.40
2018-12-26T16:48:05.812Z,21.15
2018-12-26T16:50:45.642Z,20.45
2018-12-26T16:53:25.457Z,20.30
2018-12-26T16:56:05.608Z,23.92
2018-12-26T16:58:45.388Z,19.95
2018-12-26T17:01:25.109Z,20.30
2018-12-26T17:04:04.843Z,25.17
2018-12-26T17:06:44.699Z,24.80
2018-12-26T17:09:24.424Z,22.55
2018-12-26T17:12:04.411Z,18.98
2018-12-26T17:14:44.223Z,22.07
2018-12-26T17:17:24.008Z,17.75
2018-12-26T17:20:03.911Z,23.40
2018-12-26T17:22:44.119Z,20.88
2018-12-26T17:25:25.380Z,22.52
2018-12-26T17:28:05.401Z,22.35
2018-12-26T17:30:46.326Z,27.82
2018-12-26T17:33:26.154Z,21.00
2018-12-26T17:36:06.172Z,23.30
2018-12-26T17:38:46.152Z,22.60
2018-12-26T17:41:26.348Z,23.80
2018-12-26T17:44:06.740Z,23.12
2018-12-26T17:46:46.491Z,22.37
2018-12-26T17:49:26.417Z,24.67
2018-12-26T17:52:06.509Z,25.57
2018-12-26T17:55:26.274Z,25.88
2018-12-26T17:58:05.999Z,26.95
2018-12-26T18:01:22.797Z,27.07
2018-12-26T18:04:02.533Z,26.70
2018-12-26T18:06:46.780Z,26.20
2018-12-26T18:09:26.738Z,27.37
2018-12-26T18:12:11.699Z,29.07
2018-12-26T18:14:48.107Z,28.32
2018-12-26T18:17:28.448Z,28.65
2018-12-26T18:20:13.221Z,33.30
2018-12-26T18:22:53.395Z,27.93
2018-12-26T18:25:33.123Z,32.63
2018-12-26T18:28:13.066Z,28.47
2018-12-26T18:30:52.847Z,28.20
2018-12-26T18:33:33.102Z,26.12
2018-12-26T18:36:13.826Z,25.57
2018-12-26T18:38:54.620Z,31.02
2018-12-26T18:41:34.902Z,25.30
2018-12-26T18:44:33.968Z,28.00
2018-12-26T18:47:13.848Z,31.05
2018-12-26T18:49:57.520Z,26.77
2018-12-26T18:52:37.372Z,27.37
2018-12-26T18:55:17.035Z,28.27
2018-12-26T18:57:59.977Z,28.45
2018-12-26T19:00:39.933Z,26.33
2018-12-26T19:03:19.999Z,31.68
2018-12-26T19:06:01.304Z,31.90
2018-12-26T19:08:43.668Z,32.83
2018-12-26T19:11:23.518Z,30.27
2018-12-26T19:14:04.584Z,31.65
2018-12-26T19:16:44.430Z,28.15
2018-12-26T19:19:24.407Z,29.65
2018-12-26T19:22:04.596Z,29.18
2018-12-26T19:24:44.283Z,30.95
2018-12-26T19:27:24.054Z,30.12
2018-12-26T19:30:09.823Z,32.33
2018-12-26T19:32:49.545Z,32.93
2018-12-26T19:35:29.581Z,31.17
2018-12-26T19:38:19.191Z,30.77
2018-12-26T19:40:53.246Z,31.33
2018-12-26T19:43:33.006Z,31.73
2018-12-26T19:46:13.029Z,31.15
2018-12-26T19:48:54.041Z,30.25
2018-12-26T19:51:34.040Z,34.18
2018-12-26T19:54:14.411Z,30.90
2018-12-26T19:56:54.099Z,30.17
2018-12-26T19:59:33.797Z,35.88
2018-12-26T20:02:13.542Z,31.70
2018-12-26T20:04:53.330Z,29.37
2018-12-26T20:07:33.070Z,30.45
2018-12-26T20:10:12.877Z,31.90
2018-12-26T20:12:52.580Z,30.97
2018-12-26T20:15:32.426Z,31.12
2018-12-26T20:18:13.112Z,32.50
2018-12-26T20:20:52.790Z,29.63
2018-12-26T20:23:32.552Z,28.77
2018-12-26T20:26:12.345Z,32.70
2018-12-26T20:28:52.275Z,32.63
2018-12-26T20:31:34.425Z,33.80
2018-12-26T20:34:17.102Z,32.67
2018-12-26T20:36:56.979Z,30.68
2018-12-26T20:39:39.346Z,33.78
2018-12-26T20:42:21.970Z,26.82
2018-12-26T20:45:10.139Z,30.97
2018-12-26T20:47:50.003Z,31.73
2018-12-26T20:50:30.170Z,35.78
2018-12-26T20:53:10.072Z,32.95
2018-12-26T20:55:51.005Z,36.93
2018-12-26T20:58:32.108Z,33.30
2018-12-26T21:01:12.266Z,34.98
2018-12-26T21:03:52.190Z,33.15
2018-12-26T21:06:32.049Z,37.98
2018-12-26T21:09:11.872Z,32.93
2018-12-26T21:11:52.029Z,31.70
2018-12-26T21:14:32.418Z,32.50
2018-12-26T21:17:12.443Z,33.18
2018-12-26T21:19:52.318Z,35.48
2018-12-26T21:22:34.877Z,33.18
2018-12-26T21:25:14.669Z,30.17
2018-12-26T21:27:54.963Z,34.40
2018-12-26T21:30:34.742Z,31.10
2018-12-26T21:33:14.964Z,31.50
2018-12-26T21:35:55.812Z,34.33
2018-12-26T21:38:35.760Z,31.62
2018-12-26T21:41:15.424Z,29.05
2018-12-26T21:43:55.850Z,33.00
2018-12-26T21:46:36.027Z,35.68
2018-12-26T21:49:16.553Z,33.83
2018-12-26T21:51:56.276Z,36.28
2018-12-26T21:54:37.192Z,32.73
2018-12-26T21:57:17.469Z,33.10
2018-12-26T21:59:59.748Z,27.70
2018-12-26T22:02:39.587Z,26.00
2018-12-26T22:05:19.543Z,30.12
2018-12-26T22:07:59.808Z,28.70
2018-12-26T22:10:39.950Z,27.70
2018-12-26T22:13:19.803Z,25.97
2018-12-26T22:15:59.714Z,27.52
2018-12-26T22:18:40.825Z,27.90
2018-12-26T22:21:20.607Z,29.05
2018-12-26T22:24:03.218Z,27.10
2018-12-26T22:26:43.599Z,26.55
2018-12-26T22:29:23.704Z,27.90
2018-12-26T22:32:03.613Z,29.80
2018-12-26T22:34:43.276Z,33.05
2018-12-26T22:37:23.579Z,28.38
2018-12-26T22:40:03.497Z,31.90
2018-12-26T22:42:44.544Z,32.03
2018-12-26T22:45:24.211Z,32.00
2018-12-26T22:48:04.215Z,26.52
2018-12-26T22:50:43.902Z,31.97
2018-12-26T22:53:23.638Z,31.02
2018-12-26T22:56:03.629Z,31.93
2018-12-26T22:58:45.269Z,28.38
2018-12-26T23:01:25.104Z,30.48
2018-12-26T23:04:05.224Z,28.40
2018-12-26T23:06:45.127Z,27.87
2018-12-26T23:09:25.025Z,28.15
2018-12-26T23:12:05.973Z,28.45
2018-12-26T23:14:46.045Z,28.20
2018-12-26T23:17:27.076Z,30.37
2018-12-26T23:20:07.256Z,25.45
2018-12-26T23:22:47.103Z,24.20
2018-12-26T23:25:26.778Z,28.75
2018-12-26T23:28:06.812Z,26.00
2018-12-26T23:30:46.585Z,26.87
2018-12-26T23:33:30.287Z,30.48
2018-12-26T23:36:10.318Z,30.82
2018-12-26T23:38:52.445Z,31.17
2018-12-26T23:41:33.319Z,45.35
2018-12-26T23:44:14.586Z,47.05
2018-12-26T23:46:54.638Z,41.83
2018-12-26T23:49:35.857Z,55.75
2018-12-26T23:52:15.738Z,51.35
2018-12-26T23:54:55.461Z,37.58
2018-12-26T23:57:35.330Z,36.38
